Main page
METAR-TAF:

METAR-TAF

Airports :

Amman Civil Airport

Amman, Jordan

latitude: 31-59N, longitude: 035-59E, elevation: 767 m

Current weather observation

The report was made 26 minutes ago, at 21:00 UTC
Calm wind
Temperature 18°C
Humidity 45%
Pressure 1018 hPa
Visibility: 5000 m
haze

METAR: OJAM 282100Z 00000KT 5000 HZ NSC 18/06 Q1018 NOSIG

Time: 00:26 (21:26 UTC)

Forecast

The report was made 4 hours and 26 minutes ago, at 17:00 UTC
Forecast valid from 28 at 18 UTC to 29 at 24 UTC
Wind 6 kt from the East/Northeast
Visibility: 5000 m
haze
Probability 40% :
Temporary
from 29 at 10 UTC to 29 at 20 UTC
Wind 18 kt from the Southwest
Visibility: 3000 m
Few clouds at a height of 6000 ft, Towering cumulus.
Scattered clouds at a height of 8000 ft
light rain, Blowing dust

TAF: OJAM 281700Z 2818/2924 06006KT 5000 HZ NSC PROB40 TEMPO 2910/2920 23018KT 3000 -RA BLDU FEW060TCU SCT080

Weather observations and forecasts of more than 4000 airports (METAR and TAF reports).

The available stations are represented by yellow and red dots on the map.

Hover mouse over dot to see the name of the station.

Then click to see weather observations and forecasts.

To change the map : click on the green buttons with a black cross to zoom in, on the green button with a dash to zoom out, or on the green arrows for adjacent maps.


METAR-TAF: